sensor_id;sensor_type;location;lat;lon;timestamp;P1;durP1;ratioP1;P2;durP2;ratioP2
40997;SDS011;26740;45.944;12.480;2024-01-07T00:01:29;0.00;;;0.00;;
40997;SDS011;26740;45.944;12.480;2024-01-07T00:03:54;0.40;;;0.00;;
40997;SDS011;26740;45.944;12.480;2024-01-07T00:06:20;1.08;;;0.00;;
40997;SDS011;26740;45.944;12.480;2024-01-07T00:08:46;0.30;;;0.10;;
40997;SDS011;26740;45.944;12.480;2024-01-07T00:11:12;1.77;;;0.00;;
40997;SDS011;26740;45.944;12.480;2024-01-07T00:13:38;0.00;;;0.00;;
40997;SDS011;26740;45.944;12.480;2024-01-07T00:16:04;0.00;;;0.00;;
40997;SDS011;26740;45.944;12.480;2024-01-07T00:18:29;0.00;;;0.00;;
40997;SDS011;26740;45.944;12.480;2024-01-07T00:20:55;0.00;;;0.00;;
40997;SDS011;26740;45.944;12.480;2024-01-07T00:23:20;0.00;;;0.00;;
40997;SDS011;26740;45.944;12.480;2024-01-07T00:25:46;0.08;;;0.00;;
40997;SDS011;26740;45.944;12.480;2024-01-07T00:28:12;0.20;;;0.00;;
40997;SDS011;26740;45.944;12.480;2024-01-07T00:30:38;0.00;;;0.00;;
40997;SDS011;26740;45.944;12.480;2024-01-07T00:33:03;0.40;;;0.10;;
40997;SDS011;26740;45.944;12.480;2024-01-07T00:35:29;0.10;;;0.00;;
40997;SDS011;26740;45.944;12.480;2024-01-07T00:37:55;0.20;;;0.10;;
40997;SDS011;26740;45.944;12.480;2024-01-07T00:40:23;1.00;;;0.20;;
40997;SDS011;26740;45.944;12.480;2024-01-07T00:42:49;0.65;;;0.10;;
40997;SDS011;26740;45.944;12.480;2024-01-07T00:45:16;1.40;;;1.30;;
40997;SDS011;26740;45.944;12.480;2024-01-07T00:47:43;0.50;;;0.20;;
40997;SDS011;26740;45.944;12.480;2024-01-07T00:50:09;0.20;;;0.10;;
40997;SDS011;26740;45.944;12.480;2024-01-07T00:52:35;2.53;;;0.10;;
40997;SDS011;26740;45.944;12.480;2024-01-07T00:55:04;0.47;;;0.10;;
40997;SDS011;26740;45.944;12.480;2024-01-07T00:57:31;0.22;;;0.10;;
40997;SDS011;26740;45.944;12.480;2024-01-07T00:59:58;0.20;;;0.10;;
40997;SDS011;26740;45.944;12.480;2024-01-07T01:02:24;0.20;;;0.10;;
40997;SDS011;26740;45.944;12.480;2024-01-07T01:04:49;0.47;;;0.22;;
40997;SDS011;26740;45.944;12.480;2024-01-07T01:07:15;0.22;;;0.13;;
40997;SDS011;26740;45.944;12.480;2024-01-07T01:09:40;0.70;;;0.20;;
40997;SDS011;26740;45.944;12.480;2024-01-07T01:12:06;0.63;;;0.20;;
40997;SDS011;26740;45.944;12.480;2024-01-07T01:14:32;1.00;;;0.20;;
40997;SDS011;26740;45.944;12.480;2024-01-07T01:16:57;0.95;;;0.40;;
40997;SDS011;26740;45.944;12.480;2024-01-07T01:19:23;0.55;;;0.20;;
40997;SDS011;26740;45.944;12.480;2024-01-07T01:21:49;0.10;;;0.10;;
40997;SDS011;26740;45.944;12.480;2024-01-07T01:24:15;0.60;;;0.20;;
40997;SDS011;26740;45.944;12.480;2024-01-07T01:26:40;0.35;;;0.20;;
40997;SDS011;26740;45.944;12.480;2024-01-07T01:29:06;0.55;;;0.10;;
40997;SDS011;26740;45.944;12.480;2024-01-07T01:31:32;0.30;;;0.10;;
40997;SDS011;26740;45.944;12.480;2024-01-07T01:33:57;0.30;;;0.10;;
40997;SDS011;26740;45.944;12.480;2024-01-07T01:36:23;0.30;;;0.10;;
40997;SDS011;26740;45.944;12.480;2024-01-07T01:38:49;0.10;;;0.10;;
40997;SDS011;26740;45.944;12.480;2024-01-07T01:41:15;0.20;;;0.10;;
40997;SDS011;26740;45.944;12.480;2024-01-07T01:43:41;0.30;;;0.10;;
40997;SDS011;26740;45.944;12.480;2024-01-07T01:46:07;0.20;;;0.10;;
40997;SDS011;26740;45.944;12.480;2024-01-07T01:48:33;0.20;;;0.20;;
40997;SDS011;26740;45.944;12.480;2024-01-07T01:51:00;0.75;;;0.10;;
40997;SDS011;26740;45.944;12.480;2024-01-07T01:53:27;0.20;;;0.10;;
40997;SDS011;26740;45.944;12.480;2024-01-07T01:55:53;0.30;;;0.10;;
40997;SDS011;26740;45.944;12.480;2024-01-07T01:58:21;0.17;;;0.15;;
40997;SDS011;26740;45.944;12.480;2024-01-07T02:00:49;0.70;;;0.10;;
40997;SDS011;26740;45.944;12.480;2024-01-07T02:03:18;0.57;;;0.20;;
40997;SDS011;26740;45.944;12.480;2024-01-07T02:05:44;1.10;;;0.50;;
40997;SDS011;26740;45.944;12.480;2024-01-07T02:08:10;2.25;;;0.52;;
40997;SDS011;26740;45.944;12.480;2024-01-07T02:10:37;0.82;;;0.38;;
40997;SDS011;26740;45.944;12.480;2024-01-07T02:13:03;0.38;;;0.10;;
40997;SDS011;26740;45.944;12.480;2024-01-07T02:15:29;0.30;;;0.10;;
40997;SDS011;26740;45.944;12.480;2024-01-07T02:17:55;0.20;;;0.10;;
40997;SDS011;26740;45.944;12.480;2024-01-07T02:20:21;0.30;;;0.10;;
40997;SDS011;26740;45.944;12.480;2024-01-07T02:22:46;0.50;;;0.20;;
40997;SDS011;26740;45.944;12.480;2024-01-07T02:25:12;0.20;;;0.10;;
40997;SDS011;26740;45.944;12.480;2024-01-07T02:27:38;0.50;;;0.10;;
40997;SDS011;26740;45.944;12.480;2024-01-07T02:30:03;0.38;;;0.20;;
40997;SDS011;26740;45.944;12.480;2024-01-07T02:32:29;0.30;;;0.10;;
40997;SDS011;26740;45.944;12.480;2024-01-07T02:34:59;0.20;;;0.10;;
40997;SDS011;26740;45.944;12.480;2024-01-07T02:37:25;0.43;;;0.20;;
40997;SDS011;26740;45.944;12.480;2024-01-07T02:39:50;0.30;;;0.13;;
40997;SDS011;26740;45.944;12.480;2024-01-07T02:42:16;0.60;;;0.20;;
40997;SDS011;26740;45.944;12.480;2024-01-07T02:44:42;0.30;;;0.20;;
40997;SDS011;26740;45.944;12.480;2024-01-07T02:47:07;0.55;;;0.20;;
40997;SDS011;26740;45.944;12.480;2024-01-07T02:49:33;0.40;;;0.10;;
40997;SDS011;26740;45.944;12.480;2024-01-07T02:51:58;0.20;;;0.08;;
40997;SDS011;26740;45.944;12.480;2024-01-07T02:54:24;0.17;;;0.10;;
40997;SDS011;26740;45.944;12.480;2024-01-07T02:56:50;0.30;;;0.10;;
40997;SDS011;26740;45.944;12.480;2024-01-07T02:59:15;0.10;;;0.10;;
40997;SDS011;26740;45.944;12.480;2024-01-07T03:01:41;0.10;;;0.00;;
40997;SDS011;26740;45.944;12.480;2024-01-07T03:04:10;0.43;;;0.10;;
40997;SDS011;26740;45.944;12.480;2024-01-07T03:06:37;0.20;;;0.10;;
40997;SDS011;26740;45.944;12.480;2024-01-07T03:09:03;0.70;;;0.00;;
40997;SDS011;26740;45.944;12.480;2024-01-07T03:11:29;0.35;;;0.10;;
40997;SDS011;26740;45.944;12.480;2024-01-07T03:13:55;0.00;;;0.00;;
40997;SDS011;26740;45.944;12.480;2024-01-07T03:16:22;0.10;;;0.05;;
40997;SDS011;26740;45.944;12.480;2024-01-07T03:18:48;1.88;;;0.08;;
40997;SDS011;26740;45.944;12.480;2024-01-07T03:21:20;0.68;;;0.05;;
40997;SDS011;26740;45.944;12.480;2024-01-07T03:23:47;0.43;;;0.10;;
40997;SDS011;26740;45.944;12.480;2024-01-07T03:26:13;0.10;;;0.00;;
40997;SDS011;26740;45.944;12.480;2024-01-07T03:28:39;0.30;;;0.03;;
40997;SDS011;26740;45.944;12.480;2024-01-07T03:31:08;5.18;;;0.10;;
40997;SDS011;26740;45.944;12.480;2024-01-07T03:33:35;0.00;;;0.00;;
40997;SDS011;26740;45.944;12.480;2024-01-07T03:36:06;0.00;;;0.00;;
40997;SDS011;26740;45.944;12.480;2024-01-07T03:38:35;0.30;;;0.00;;
40997;SDS011;26740;45.944;12.480;2024-01-07T03:41:02;0.00;;;0.00;;
40997;SDS011;26740;45.944;12.480;2024-01-07T03:43:28;0.25;;;0.00;;
40997;SDS011;26740;45.944;12.480;2024-01-07T03:45:53;0.50;;;0.00;;
40997;SDS011;26740;45.944;12.480;2024-01-07T03:48:19;0.30;;;0.03;;
40997;SDS011;26740;45.944;12.480;2024-01-07T03:50:45;0.55;;;0.00;;
40997;SDS011;26740;45.944;12.480;2024-01-07T03:53:10;0.05;;;0.00;;
40997;SDS011;26740;45.944;12.480;2024-01-07T03:55:36;0.00;;;0.00;;
40997;SDS011;26740;45.944;12.480;2024-01-07T03:58:02;0.10;;;0.00;;
40997;SDS011;26740;45.944;12.480;2024-01-07T04:00:28;0.00;;;0.00;;
40997;SDS011;26740;45.944;12.480;2024-01-07T04:02:53;2.50;;;0.10;;
40997;SDS011;26740;45.944;12.480;2024-01-07T04:05:19;0.00;;;0.00;;
40997;SDS011;26740;45.944;12.480;2024-01-07T04:07:44;0.00;;;0.00;;
40997;SDS011;26740;45.944;12.480;2024-01-07T04:10:10;0.17;;;0.03;;
40997;SDS011;26740;45.944;12.480;2024-01-07T04:12:36;0.00;;;0.00;;
40997;SDS011;26740;45.944;12.480;2024-01-07T04:15:02;0.00;;;0.00;;
40997;SDS011;26740;45.944;12.480;2024-01-07T04:17:28;0.10;;;0.00;;
40997;SDS011;26740;45.944;12.480;2024-01-07T04:19:54;0.00;;;0.00;;
40997;SDS011;26740;45.944;12.480;2024-01-07T04:22:20;0.00;;;0.00;;
40997;SDS011;26740;45.944;12.480;2024-01-07T04:24:45;2.92;;;0.00;;
40997;SDS011;26740;45.944;12.480;2024-01-07T04:27:11;0.60;;;0.50;;
40997;SDS011;26740;45.944;12.480;2024-01-07T04:29:36;0.00;;;0.00;;
40997;SDS011;26740;45.944;12.480;2024-01-07T04:32:02;0.95;;;0.20;;
40997;SDS011;26740;45.944;12.480;2024-01-07T04:34:28;0.00;;;0.00;;
40997;SDS011;26740;45.944;12.480;2024-01-07T04:36:53;0.63;;;0.00;;
40997;SDS011;26740;45.944;12.480;2024-01-07T04:39:19;1.30;;;0.00;;
40997;SDS011;26740;45.944;12.480;2024-01-07T04:41:45;0.10;;;0.00;;
40997;SDS011;26740;45.944;12.480;2024-01-07T04:44:10;0.75;;;0.05;;
40997;SDS011;26740;45.944;12.480;2024-01-07T04:46:39;0.10;;;0.00;;
40997;SDS011;26740;45.944;12.480;2024-01-07T04:49:05;0.00;;;0.00;;
40997;SDS011;26740;45.944;12.480;2024-01-07T04:51:34;0.10;;;0.00;;
40997;SDS011;26740;45.944;12.480;2024-01-07T04:56:27;0.40;;;0.10;;
40997;SDS011;26740;45.944;12.480;2024-01-07T04:58:52;0.20;;;0.00;;
40997;SDS011;26740;45.944;12.480;2024-01-07T05:01:18;0.85;;;0.35;;
40997;SDS011;26740;45.944;12.480;2024-01-07T05:03:43;0.00;;;0.00;;
40997;SDS011;26740;45.944;12.480;2024-01-07T05:06:09;0.22;;;0.00;;
40997;SDS011;26740;45.944;12.480;2024-01-07T05:08:35;0.10;;;0.00;;
40997;SDS011;26740;45.944;12.480;2024-01-07T05:11:02;0.00;;;0.00;;
40997;SDS011;26740;45.944;12.480;2024-01-07T05:13:28;0.00;;;0.00;;
40997;SDS011;26740;45.944;12.480;2024-01-07T05:15:54;0.00;;;0.00;;
40997;SDS011;26740;45.944;12.480;2024-01-07T05:18:22;0.80;;;0.00;;
40997;SDS011;26740;45.944;12.480;2024-01-07T05:20:49;0.00;;;0.00;;
40997;SDS011;26740;45.944;12.480;2024-01-07T05:23:14;0.00;;;0.00;;
40997;SDS011;26740;45.944;12.480;2024-01-07T05:25:42;0.05;;;0.00;;
40997;SDS011;26740;45.944;12.480;2024-01-07T05:28:08;0.10;;;0.00;;
40997;SDS011;26740;45.944;12.480;2024-01-07T05:30:34;0.10;;;0.00;;
40997;SDS011;26740;45.944;12.480;2024-01-07T05:32:59;0.00;;;0.00;;
40997;SDS011;26740;45.944;12.480;2024-01-07T05:35:25;2.35;;;0.00;;
40997;SDS011;26740;45.944;12.480;2024-01-07T05:37:50;0.00;;;0.00;;
40997;SDS011;26740;45.944;12.480;2024-01-07T05:40:16;0.00;;;0.00;;
40997;SDS011;26740;45.944;12.480;2024-01-07T05:42:41;0.40;;;0.17;;
40997;SDS011;26740;45.944;12.480;2024-01-07T05:45:07;0.20;;;0.20;;
40997;SDS011;26740;45.944;12.480;2024-01-07T05:47:33;0.10;;;0.10;;
40997;SDS011;26740;45.944;12.480;2024-01-07T05:49:58;0.10;;;0.10;;
40997;SDS011;26740;45.944;12.480;2024-01-07T05:52:24;0.00;;;0.00;;
40997;SDS011;26740;45.944;12.480;2024-01-07T05:54:50;0.00;;;0.00;;
40997;SDS011;26740;45.944;12.480;2024-01-07T05:57:15;0.00;;;0.00;;
40997;SDS011;26740;45.944;12.480;2024-01-07T05:59:43;0.30;;;0.00;;
40997;SDS011;26740;45.944;12.480;2024-01-07T06:02:09;0.00;;;0.00;;
40997;SDS011;26740;45.944;12.480;2024-01-07T06:04:34;0.05;;;0.00;;
40997;SDS011;26740;45.944;12.480;2024-01-07T06:07:00;0.30;;;0.20;;
40997;SDS011;26740;45.944;12.480;2024-01-07T06:09:25;1.35;;;0.20;;
40997;SDS011;26740;45.944;12.480;2024-01-07T06:11:51;0.75;;;0.20;;
40997;SDS011;26740;45.944;12.480;2024-01-07T06:14:17;1.08;;;0.30;;
40997;SDS011;26740;45.944;12.480;2024-01-07T06:16:42;0.10;;;0.00;;
40997;SDS011;26740;45.944;12.480;2024-01-07T06:19:08;1.25;;;0.20;;
40997;SDS011;26740;45.944;12.480;2024-01-07T06:21:33;0.13;;;0.10;;
40997;SDS011;26740;45.944;12.480;2024-01-07T06:23:59;0.30;;;0.10;;
40997;SDS011;26740;45.944;12.480;2024-01-07T06:26:24;0.25;;;0.10;;
40997;SDS011;26740;45.944;12.480;2024-01-07T06:28:50;1.02;;;0.13;;
40997;SDS011;26740;45.944;12.480;2024-01-07T06:31:15;0.25;;;0.15;;
40997;SDS011;26740;45.944;12.480;2024-01-07T06:33:41;0.35;;;0.20;;
40997;SDS011;26740;45.944;12.480;2024-01-07T06:36:08;0.90;;;0.20;;
40997;SDS011;26740;45.944;12.480;2024-01-07T06:38:33;0.63;;;0.28;;
40997;SDS011;26740;45.944;12.480;2024-01-07T06:40:59;0.43;;;0.10;;
40997;SDS011;26740;45.944;12.480;2024-01-07T06:43:29;1.65;;;0.10;;
40997;SDS011;26740;45.944;12.480;2024-01-07T06:45:54;0.13;;;0.10;;
40997;SDS011;26740;45.944;12.480;2024-01-07T06:48:20;0.88;;;0.10;;
40997;SDS011;26740;45.944;12.480;2024-01-07T06:50:46;0.10;;;0.10;;
40997;SDS011;26740;45.944;12.480;2024-01-07T06:53:11;0.30;;;0.00;;
40997;SDS011;26740;45.944;12.480;2024-01-07T06:55:37;0.10;;;0.00;;
40997;SDS011;26740;45.944;12.480;2024-01-07T06:58:02;0.00;;;0.00;;
40997;SDS011;26740;45.944;12.480;2024-01-07T07:00:28;0.52;;;0.00;;
40997;SDS011;26740;45.944;12.480;2024-01-07T07:02:53;0.00;;;0.00;;
40997;SDS011;26740;45.944;12.480;2024-01-07T07:05:19;0.20;;;0.05;;
40997;SDS011;26740;45.944;12.480;2024-01-07T07:07:44;4.78;;;0.15;;
40997;SDS011;26740;45.944;12.480;2024-01-07T07:10:10;0.22;;;0.13;;
40997;SDS011;26740;45.944;12.480;2024-01-07T07:12:36;0.63;;;0.10;;
40997;SDS011;26740;45.944;12.480;2024-01-07T07:15:01;0.93;;;0.35;;
40997;SDS011;26740;45.944;12.480;2024-01-07T07:17:27;2.58;;;0.50;;
40997;SDS011;26740;45.944;12.480;2024-01-07T07:19:53;0.52;;;0.30;;
40997;SDS011;26740;45.944;12.480;2024-01-07T07:22:18;0.80;;;0.30;;
40997;SDS011;26740;45.944;12.480;2024-01-07T07:24:44;0.60;;;0.28;;
40997;SDS011;26740;45.944;12.480;2024-01-07T07:27:09;0.82;;;0.20;;
40997;SDS011;26740;45.944;12.480;2024-01-07T07:29:35;0.20;;;0.10;;
40997;SDS011;26740;45.944;12.480;2024-01-07T07:32:00;0.20;;;0.00;;
40997;SDS011;26740;45.944;12.480;2024-01-07T07:34:26;0.10;;;0.00;;
40997;SDS011;26740;45.944;12.480;2024-01-07T07:36:51;0.10;;;0.00;;
40997;SDS011;26740;45.944;12.480;2024-01-07T07:39:17;0.63;;;0.00;;
40997;SDS011;26740;45.944;12.480;2024-01-07T07:41:42;1.75;;;0.00;;
40997;SDS011;26740;45.944;12.480;2024-01-07T07:44:08;0.15;;;0.10;;
40997;SDS011;26740;45.944;12.480;2024-01-07T07:46:33;0.10;;;0.00;;
40997;SDS011;26740;45.944;12.480;2024-01-07T07:48:59;0.10;;;0.00;;
40997;SDS011;26740;45.944;12.480;2024-01-07T07:51:26;0.00;;;0.00;;
40997;SDS011;26740;45.944;12.480;2024-01-07T07:53:51;1.23;;;0.00;;
40997;SDS011;26740;45.944;12.480;2024-01-07T07:56:17;0.03;;;0.00;;
40997;SDS011;26740;45.944;12.480;2024-01-07T07:58:42;0.10;;;0.10;;
40997;SDS011;26740;45.944;12.480;2024-01-07T08:01:08;0.13;;;0.08;;
40997;SDS011;26740;45.944;12.480;2024-01-07T08:03:33;0.00;;;0.00;;
40997;SDS011;26740;45.944;12.480;2024-01-07T08:05:59;0.10;;;0.00;;
40997;SDS011;26740;45.944;12.480;2024-01-07T08:08:25;0.70;;;0.13;;
40997;SDS011;26740;45.944;12.480;2024-01-07T08:10:50;1.08;;;0.20;;
40997;SDS011;26740;45.944;12.480;2024-01-07T08:13:16;0.00;;;0.00;;
40997;SDS011;26740;45.944;12.480;2024-01-07T08:15:42;0.22;;;0.10;;
40997;SDS011;26740;45.944;12.480;2024-01-07T08:18:07;0.30;;;0.15;;
40997;SDS011;26740;45.944;12.480;2024-01-07T08:20:33;0.30;;;0.10;;
40997;SDS011;26740;45.944;12.480;2024-01-07T08:22:58;3.53;;;0.20;;
40997;SDS011;26740;45.944;12.480;2024-01-07T08:25:25;0.17;;;0.10;;
40997;SDS011;26740;45.944;12.480;2024-01-07T08:27:51;0.40;;;0.10;;
40997;SDS011;26740;45.944;12.480;2024-01-07T08:30:16;0.38;;;0.17;;
40997;SDS011;26740;45.944;12.480;2024-01-07T08:32:42;0.25;;;0.20;;
40997;SDS011;26740;45.944;12.480;2024-01-07T08:35:08;0.32;;;0.10;;
40997;SDS011;26740;45.944;12.480;2024-01-07T08:37:34;0.28;;;0.10;;
40997;SDS011;26740;45.944;12.480;2024-01-07T08:39:59;0.15;;;0.00;;
40997;SDS011;26740;45.944;12.480;2024-01-07T08:42:26;0.30;;;0.10;;
40997;SDS011;26740;45.944;12.480;2024-01-07T08:44:52;0.30;;;0.15;;
40997;SDS011;26740;45.944;12.480;2024-01-07T08:47:17;0.40;;;0.20;;
40997;SDS011;26740;45.944;12.480;2024-01-07T08:49:43;0.25;;;0.20;;
40997;SDS011;26740;45.944;12.480;2024-01-07T08:52:09;0.50;;;0.20;;
40997;SDS011;26740;45.944;12.480;2024-01-07T08:54:35;0.60;;;0.22;;
40997;SDS011;26740;45.944;12.480;2024-01-07T08:57:00;1.88;;;0.20;;
40997;SDS011;26740;45.944;12.480;2024-01-07T08:59:26;0.40;;;0.30;;
40997;SDS011;26740;45.944;12.480;2024-01-07T09:01:51;0.32;;;0.20;;
40997;SDS011;26740;45.944;12.480;2024-01-07T09:04:17;0.20;;;0.20;;
40997;SDS011;26740;45.944;12.480;2024-01-07T09:06:43;0.30;;;0.10;;
40997;SDS011;26740;45.944;12.480;2024-01-07T09:09:09;0.60;;;0.10;;
40997;SDS011;26740;45.944;12.480;2024-01-07T09:11:35;0.30;;;0.20;;
40997;SDS011;26740;45.944;12.480;2024-01-07T09:14:01;2.63;;;2.42;;
40997;SDS011;26740;45.944;12.480;2024-01-07T09:16:28;0.65;;;0.40;;
40997;SDS011;26740;45.944;12.480;2024-01-07T09:18:56;0.88;;;0.47;;
40997;SDS011;26740;45.944;12.480;2024-01-07T09:21:22;1.13;;;0.75;;
40997;SDS011;26740;45.944;12.480;2024-01-07T09:23:51;0.77;;;0.28;;
40997;SDS011;26740;45.944;12.480;2024-01-07T09:26:16;2.03;;;1.00;;
40997;SDS011;26740;45.944;12.480;2024-01-07T09:28:42;1.25;;;0.20;;
40997;SDS011;26740;45.944;12.480;2024-01-07T09:31:08;1.27;;;0.30;;
40997;SDS011;26740;45.944;12.480;2024-01-07T09:33:33;0.60;;;0.32;;
40997;SDS011;26740;45.944;12.480;2024-01-07T09:35:59;0.77;;;0.20;;
40997;SDS011;26740;45.944;12.480;2024-01-07T09:38:25;1.25;;;1.13;;
40997;SDS011;26740;45.944;12.480;2024-01-07T09:40:51;0.82;;;0.47;;
40997;SDS011;26740;45.944;12.480;2024-01-07T09:43:18;0.20;;;0.20;;
40997;SDS011;26740;45.944;12.480;2024-01-07T09:45:45;0.85;;;0.63;;
40997;SDS011;26740;45.944;12.480;2024-01-07T09:48:13;2.88;;;2.20;;
40997;SDS011;26740;45.944;12.480;2024-01-07T09:50:39;0.55;;;0.30;;
40997;SDS011;26740;45.944;12.480;2024-01-07T09:53:05;0.35;;;0.20;;
40997;SDS011;26740;45.944;12.480;2024-01-07T09:55:52;0.20;;;0.17;;
40997;SDS011;26740;45.944;12.480;2024-01-07T09:58:23;0.50;;;0.10;;
40997;SDS011;26740;45.944;12.480;2024-01-07T10:00:50;0.30;;;0.13;;
40997;SDS011;26740;45.944;12.480;2024-01-07T10:03:17;0.30;;;0.17;;
40997;SDS011;26740;45.944;12.480;2024-01-07T10:05:42;0.40;;;0.10;;
40997;SDS011;26740;45.944;12.480;2024-01-07T10:08:08;0.30;;;0.10;;
40997;SDS011;26740;45.944;12.480;2024-01-07T10:10:34;1.70;;;0.10;;
40997;SDS011;26740;45.944;12.480;2024-01-07T10:13:01;0.30;;;0.10;;
40997;SDS011;26740;45.944;12.480;2024-01-07T10:15:27;0.20;;;0.10;;
40997;SDS011;26740;45.944;12.480;2024-01-07T10:18:02;0.50;;;0.32;;
40997;SDS011;26740;45.944;12.480;2024-01-07T10:20:32;0.20;;;0.10;;
40997;SDS011;26740;45.944;12.480;2024-01-07T10:23:01;0.20;;;0.10;;
40997;SDS011;26740;45.944;12.480;2024-01-07T10:25:28;0.50;;;0.30;;
40997;SDS011;26740;45.944;12.480;2024-01-07T10:28:00;0.32;;;0.20;;
40997;SDS011;26740;45.944;12.480;2024-01-07T10:30:27;0.45;;;0.10;;
40997;SDS011;26740;45.944;12.480;2024-01-07T10:32:59;0.82;;;0.20;;
40997;SDS011;26740;45.944;12.480;2024-01-07T10:35:27;0.60;;;0.38;;
40997;SDS011;26740;45.944;12.480;2024-01-07T10:37:58;1.70;;;0.93;;
40997;SDS011;26740;45.944;12.480;2024-01-07T10:40:26;0.43;;;0.28;;
40997;SDS011;26740;45.944;12.480;2024-01-07T10:42:52;1.25;;;0.50;;
40997;SDS011;26740;45.944;12.480;2024-01-07T10:45:20;1.25;;;0.85;;
40997;SDS011;26740;45.944;12.480;2024-01-07T10:47:48;1.80;;;0.40;;
40997;SDS011;26740;45.944;12.480;2024-01-07T10:50:17;0.90;;;0.50;;
40997;SDS011;26740;45.944;12.480;2024-01-07T10:52:43;1.67;;;0.40;;
40997;SDS011;26740;45.944;12.480;2024-01-07T10:55:20;0.80;;;0.30;;
40997;SDS011;26740;45.944;12.480;2024-01-07T10:57:51;1.00;;;0.50;;
40997;SDS011;26740;45.944;12.480;2024-01-07T11:00:21;2.42;;;0.80;;
40997;SDS011;26740;45.944;12.480;2024-01-07T11:10:48;1.10;;;0.50;;
40997;SDS011;26740;45.944;12.480;2024-01-07T11:13:35;0.80;;;0.40;;
40997;SDS011;26740;45.944;12.480;2024-01-07T11:16:06;1.30;;;0.95;;
40997;SDS011;26740;45.944;12.480;2024-01-07T11:18:54;1.83;;;1.08;;
40997;SDS011;26740;45.944;12.480;2024-01-07T11:21:23;2.08;;;1.88;;
40997;SDS011;26740;45.944;12.480;2024-01-07T11:23:52;0.98;;;0.82;;
40997;SDS011;26740;45.944;12.480;2024-01-07T11:26:18;0.93;;;0.75;;
40997;SDS011;26740;45.944;12.480;2024-01-07T11:31:18;2.92;;;0.70;;
40997;SDS011;26740;45.944;12.480;2024-01-07T11:33:46;0.88;;;0.57;;
40997;SDS011;26740;45.944;12.480;2024-01-07T11:36:15;2.72;;;0.80;;
40997;SDS011;26740;45.944;12.480;2024-01-07T11:38:47;0.90;;;0.50;;
40997;SDS011;26740;45.944;12.480;2024-01-07T11:41:15;1.05;;;0.70;;
40997;SDS011;26740;45.944;12.480;2024-01-07T11:43:53;1.50;;;0.98;;
40997;SDS011;26740;45.944;12.480;2024-01-07T11:46:24;1.92;;;0.75;;
40997;SDS011;26740;45.944;12.480;2024-01-07T11:48:52;5.35;;;0.70;;
40997;SDS011;26740;45.944;12.480;2024-01-07T11:51:19;0.98;;;0.60;;
40997;SDS011;26740;45.944;12.480;2024-01-07T11:53:47;1.40;;;0.60;;
40997;SDS011;26740;45.944;12.480;2024-01-07T11:56:15;2.15;;;1.23;;
40997;SDS011;26740;45.944;12.480;2024-01-07T11:58:40;7.20;;;0.88;;
40997;SDS011;26740;45.944;12.480;2024-01-07T12:01:07;1.77;;;1.50;;
40997;SDS011;26740;45.944;12.480;2024-01-07T12:03:32;2.33;;;1.50;;
40997;SDS011;26740;45.944;12.480;2024-01-07T12:05:59;1.63;;;0.98;;
40997;SDS011;26740;45.944;12.480;2024-01-07T12:08:24;1.90;;;1.30;;
40997;SDS011;26740;45.944;12.480;2024-01-07T12:10:50;3.35;;;2.25;;
40997;SDS011;26740;45.944;12.480;2024-01-07T12:13:16;3.72;;;2.55;;
40997;SDS011;26740;45.944;12.480;2024-01-07T12:15:42;3.95;;;2.25;;
40997;SDS011;26740;45.944;12.480;2024-01-07T12:18:08;3.17;;;2.13;;
40997;SDS011;26740;45.944;12.480;2024-01-07T12:20:34;2.35;;;1.80;;
40997;SDS011;26740;45.944;12.480;2024-01-07T12:23:09;2.75;;;2.22;;
40997;SDS011;26740;45.944;12.480;2024-01-07T12:25:35;3.55;;;2.22;;
40997;SDS011;26740;45.944;12.480;2024-01-07T12:28:02;3.08;;;2.22;;
40997;SDS011;26740;45.944;12.480;2024-01-07T12:30:31;3.05;;;2.55;;
40997;SDS011;26740;45.944;12.480;2024-01-07T12:32:57;2.10;;;1.85;;
40997;SDS011;26740;45.944;12.480;2024-01-07T12:35:25;2.33;;;1.92;;
40997;SDS011;26740;45.944;12.480;2024-01-07T12:37:51;3.42;;;2.75;;
40997;SDS011;26740;45.944;12.480;2024-01-07T12:40:17;2.00;;;1.52;;
40997;SDS011;26740;45.944;12.480;2024-01-07T12:42:44;2.03;;;1.30;;
40997;SDS011;26740;45.944;12.480;2024-01-07T12:45:11;1.50;;;1.38;;
40997;SDS011;26740;45.944;12.480;2024-01-07T12:47:41;1.98;;;1.50;;
40997;SDS011;26740;45.944;12.480;2024-01-07T12:50:07;2.45;;;1.90;;
40997;SDS011;26740;45.944;12.480;2024-01-07T12:52:35;1.52;;;1.25;;
40997;SDS011;26740;45.944;12.480;2024-01-07T12:55:02;2.00;;;1.40;;
40997;SDS011;26740;45.944;12.480;2024-01-07T12:57:28;2.08;;;1.70;;
40997;SDS011;26740;45.944;12.480;2024-01-07T12:59:53;2.28;;;2.08;;
40997;SDS011;26740;45.944;12.480;2024-01-07T13:02:19;2.55;;;1.80;;
40997;SDS011;26740;45.944;12.480;2024-01-07T13:04:45;1.85;;;1.20;;
40997;SDS011;26740;45.944;12.480;2024-01-07T13:07:11;2.08;;;1.60;;
40997;SDS011;26740;45.944;12.480;2024-01-07T13:09:36;10.65;;;5.50;;
40997;SDS011;26740;45.944;12.480;2024-01-07T13:12:02;9.93;;;4.80;;
40997;SDS011;26740;45.944;12.480;2024-01-07T13:14:29;7.60;;;3.42;;
40997;SDS011;26740;45.944;12.480;2024-01-07T13:16:55;9.70;;;3.95;;
40997;SDS011;26740;45.944;12.480;2024-01-07T13:19:20;2.63;;;1.80;;
40997;SDS011;26740;45.944;12.480;2024-01-07T13:21:46;3.00;;;2.13;;
40997;SDS011;26740;45.944;12.480;2024-01-07T13:24:12;6.53;;;3.83;;
40997;SDS011;26740;45.944;12.480;2024-01-07T13:26:39;20.23;;;12.52;;
40997;SDS011;26740;45.944;12.480;2024-01-07T13:29:07;5.22;;;2.25;;
40997;SDS011;26740;45.944;12.480;2024-01-07T13:31:32;1.73;;;1.20;;
40997;SDS011;26740;45.944;12.480;2024-01-07T13:33:58;2.15;;;1.55;;
40997;SDS011;26740;45.944;12.480;2024-01-07T13:36:24;1.48;;;1.35;;
40997;SDS011;26740;45.944;12.480;2024-01-07T13:38:49;4.43;;;1.52;;
40997;SDS011;26740;45.944;12.480;2024-01-07T13:41:16;1.98;;;1.77;;
40997;SDS011;26740;45.944;12.480;2024-01-07T13:43:42;3.38;;;2.05;;
40997;SDS011;26740;45.944;12.480;2024-01-07T13:46:08;1.70;;;1.25;;
40997;SDS011;26740;45.944;12.480;2024-01-07T13:48:34;1.88;;;1.10;;
40997;SDS011;26740;45.944;12.480;2024-01-07T13:51:00;2.47;;;1.45;;
40997;SDS011;26740;45.944;12.480;2024-01-07T13:53:27;2.83;;;1.30;;
40997;SDS011;26740;45.944;12.480;2024-01-07T13:55:53;2.20;;;1.27;;
40997;SDS011;26740;45.944;12.480;2024-01-07T13:58:18;1.80;;;1.20;;
40997;SDS011;26740;45.944;12.480;2024-01-07T14:00:45;2.42;;;1.52;;
40997;SDS011;26740;45.944;12.480;2024-01-07T14:03:10;1.63;;;1.23;;
40997;SDS011;26740;45.944;12.480;2024-01-07T14:05:36;1.70;;;1.40;;
40997;SDS011;26740;45.944;12.480;2024-01-07T14:08:02;1.42;;;1.10;;
40997;SDS011;26740;45.944;12.480;2024-01-07T14:10:28;1.70;;;1.08;;
40997;SDS011;26740;45.944;12.480;2024-01-07T14:12:54;2.25;;;1.10;;
40997;SDS011;26740;45.944;12.480;2024-01-07T14:15:19;1.83;;;1.50;;
40997;SDS011;26740;45.944;12.480;2024-01-07T14:17:45;1.60;;;1.25;;
40997;SDS011;26740;45.944;12.480;2024-01-07T14:20:11;4.63;;;1.73;;
40997;SDS011;26740;45.944;12.480;2024-01-07T14:22:36;1.98;;;1.50;;
40997;SDS011;26740;45.944;12.480;2024-01-07T14:25:02;1.95;;;1.30;;
40997;SDS011;26740;45.944;12.480;2024-01-07T14:27:28;1.65;;;1.55;;
40997;SDS011;26740;45.944;12.480;2024-01-07T14:29:54;5.07;;;2.10;;
40997;SDS011;26740;45.944;12.480;2024-01-07T14:32:21;3.03;;;1.42;;
40997;SDS011;26740;45.944;12.480;2024-01-07T14:34:47;7.03;;;2.03;;
40997;SDS011;26740;45.944;12.480;2024-01-07T14:37:14;4.18;;;1.70;;
40997;SDS011;26740;45.944;12.480;2024-01-07T14:39:40;2.38;;;1.65;;
40997;SDS011;26740;45.944;12.480;2024-01-07T14:42:06;1.60;;;1.40;;